Time;durP1;ratioP1;P1;durP2;ratioP2;P2;SDS_P1;SDS_P2;PMS_P1;PMS_P2;Temp;Humidity;BMP_temperature;BMP_pressure;BME280_temperature;BME280_humidity;BME280_pressure;Samples;Min_cycle;Max_cycle;Signal;HPM_P1;HPM_P2
2022/04/21 00:01:18;;;;;;;2.92;2.72;;;19.30;37.20;;;;;;5037026;28;20207;-67
2022/04/21 00:03:46;;;;;;;3.60;2.75;;;19.30;37.20;;;;;;5054568;28;20719;-66
2022/04/21 00:06:13;;;;;;;3.60;2.80;;;19.30;37.20;;;;;;5036713;28;20203;-66
2022/04/21 00:08:41;;;;;;;4.22;2.90;;;19.30;37.30;;;;;;5036752;28;20245;-67
2022/04/21 00:11:08;;;;;;;3.20;2.97;;;19.30;37.70;;;;;;5036981;28;20191;-66
2022/04/21 00:13:36;;;;;;;3.13;2.83;;;19.30;37.20;;;;;;5054717;28;20218;-67
2022/04/21 00:16:04;;;;;;;3.40;2.42;;;19.30;37.40;;;;;;5037325;28;20225;-66
2022/04/21 00:18:31;;;;;;;3.50;3.20;;;19.30;37.40;;;;;;5036628;28;20298;-66
2022/04/21 00:21:01;;;;;;;3.47;3.17;;;19.30;37.50;;;;;;5037426;28;20543;-67
2022/04/21 00:23:28;;;;;;;3.03;2.83;;;19.20;37.20;;;;;;5036401;28;20215;-66
2022/04/21 00:25:55;;;;;;;3.00;2.70;;;19.20;37.50;;;;;;5054269;28;20274;-66
2022/04/21 00:28:22;;;;;;;3.40;2.90;;;19.20;37.50;;;;;;5036296;28;20285;-66
2022/04/21 00:30:49;;;;;;;3.20;2.80;;;19.20;37.40;;;;;;5036199;28;20195;-66
2022/04/21 00:33:16;;;;;;;3.05;2.85;;;19.20;37.50;;;;;;5036134;28;20219;-67
2022/04/21 00:35:43;;;;;;;4.57;3.10;;;19.10;37.60;;;;;;5053960;28;20198;-65
2022/04/21 00:38:12;;;;;;;3.03;2.72;;;19.10;37.50;;;;;;5036158;28;20601;-66
2022/04/21 00:40:39;;;;;;;3.00;2.80;;;19.10;37.50;;;;;;5053892;28;20191;-67
2022/04/21 00:43:06;;;;;;;3.17;2.65;;;19.10;37.50;;;;;;5054210;28;20286;-66
2022/04/21 00:45:33;;;;;;;2.95;2.65;;;19.10;37.50;;;;;;5036058;28;20200;-66
2022/04/21 00:48:01;;;;;;;2.95;2.70;;;19.10;37.70;;;;;;5036041;28;20203;-66
2022/04/21 00:50:30;;;;;;;5.20;2.97;;;19.10;37.70;;;;;;5036004;28;20195;-67
2022/04/21 00:52:58;;;;;;;2.95;2.63;;;19.00;37.50;;;;;;5053779;28;20701;-66
2022/04/21 00:55:26;;;;;;;3.22;3.00;;;19.00;37.60;;;;;;5035190;28;20669;-66
2022/04/21 00:57:54;;;;;;;3.40;3.10;;;19.00;37.50;;;;;;5036742;28;20211;-67
2022/04/21 01:00:22;;;;;;;3.13;2.80;;;19.00;38.30;;;;;;5053854;28;20253;-66
2022/04/21 01:02:51;;;;;;;3.08;2.80;;;19.00;37.90;;;;;;5036512;28;20206;-66
2022/04/21 01:05:24;;;;;;;3.47;3.17;;;19.00;37.70;;;;;;5035825;28;20200;-66
2022/04/21 01:07:51;;;;;;;3.15;2.85;;;19.00;37.90;;;;;;5035864;28;20194;-66
2022/04/21 01:10:18;;;;;;;3.20;2.90;;;18.90;37.70;;;;;;5035816;28;20191;-67
2022/04/21 01:12:48;;;;;;;2.60;2.40;;;18.90;37.70;;;;;;5035520;28;20688;-66
2022/04/21 01:15:15;;;;;;;3.13;2.85;;;18.90;37.70;;;;;;5053252;28;20238;-67
2022/04/21 01:17:42;;;;;;;2.83;2.58;;;18.90;37.80;;;;;;5053278;28;20241;-66
2022/04/21 01:20:10;;;;;;;3.28;2.88;;;18.90;37.80;;;;;;5035437;28;20306;-66
2022/04/21 01:22:39;;;;;;;2.90;2.70;;;18.80;37.70;;;;;;5035512;28;20726;-67
2022/04/21 01:25:06;;;;;;;3.20;2.90;;;18.90;37.90;;;;;;5035547;28;20191;-67
2022/04/21 01:27:34;;;;;;;2.78;2.58;;;18.90;37.90;;;;;;5035334;28;20227;-66
2022/04/21 01:30:03;;;;;;;2.67;2.47;;;18.80;37.90;;;;;;5035306;28;20200;-66
2022/04/21 01:32:31;;;;;;;4.25;2.92;;;18.90;38.00;;;;;;5035380;28;20200;-66
2022/04/21 01:34:59;;;;;;;3.40;3.10;;;18.90;38.50;;;;;;5035156;28;20711;-66
2022/04/21 01:42:56;;;;;;;3.15;2.88;;;18.80;37.90;;;;;;5035317;28;20208;-66
2022/04/21 01:45:24;;;;;;;3.05;2.85;;;18.70;37.90;;;;;;5053182;28;20266;-66
2022/04/21 01:47:50;;;;;;;3.40;3.10;;;18.70;38.00;;;;;;5035387;28;20565;-66
2022/04/21 01:50:18;;;;;;;2.85;2.65;;;18.70;38.50;;;;;;5035433;28;20218;-67
2022/04/21 01:52:45;;;;;;;3.10;2.80;;;18.70;37.90;;;;;;5036316;28;20249;-66
2022/04/21 01:55:14;;;;;;;3.92;2.90;;;18.70;38.00;;;;;;5035275;28;20302;-66
2022/04/21 01:57:41;;;;;;;3.03;2.83;;;18.70;37.90;;;;;;5035274;28;20199;-66
2022/04/21 02:00:09;;;;;;;3.15;2.95;;;18.70;38.00;;;;;;5035173;28;20233;-67
2022/04/21 02:02:36;;;;;;;3.10;2.80;;;18.60;38.00;;;;;;5035159;28;20652;-67
2022/04/21 02:05:04;;;;;;;3.40;3.10;;;18.70;38.00;;;;;;5053421;28;20211;-66
2022/04/21 02:07:31;;;;;;;3.30;3.00;;;18.60;38.00;;;;;;5037564;28;20282;-66
2022/04/21 02:10:00;;;;;;;3.15;2.95;;;18.60;38.00;;;;;;5039393;28;20203;-66
2022/04/21 02:12:28;;;;;;;3.50;3.13;;;18.60;38.00;;;;;;5039750;28;20203;-67
2022/04/21 02:14:55;;;;;;;3.28;2.90;;;18.60;38.20;;;;;;5038962;28;20280;-66
2022/04/21 02:17:25;;;;;;;3.47;3.10;;;18.60;38.10;;;;;;5039178;28;20294;-66
2022/04/21 02:19:52;;;;;;;3.08;2.88;;;18.60;38.10;;;;;;5039341;28;20211;-67
2022/04/21 02:22:19;;;;;;;3.30;3.00;;;18.60;38.20;;;;;;5040286;28;20195;-67
2022/04/21 02:24:46;;;;;;;2.90;2.70;;;18.60;38.20;;;;;;5056803;28;20203;-67
2022/04/21 02:27:14;;;;;;;3.10;2.80;;;18.50;38.00;;;;;;5038761;28;20199;-67
2022/04/21 02:29:42;;;;;;;3.20;3.00;;;18.50;38.10;;;;;;5038732;28;20206;-66
2022/04/21 02:32:09;;;;;;;3.22;3.03;;;18.50;38.10;;;;;;5038850;28;20199;-66
2022/04/21 02:34:36;;;;;;;3.15;2.88;;;18.50;38.20;;;;;;5038638;28;20226;-66
2022/04/21 02:37:04;;;;;;;3.05;2.85;;;18.50;38.30;;;;;;5038695;28;20256;-66
2022/04/21 02:39:31;;;;;;;3.20;2.80;;;18.50;38.20;;;;;;5038855;28;20192;-67
2022/04/21 02:41:58;;;;;;;3.17;2.95;;;18.50;38.10;;;;;;5038921;28;20294;-66
2022/04/21 02:44:25;;;;;;;3.35;3.10;;;18.50;38.20;;;;;;5038464;28;20303;-66
2022/04/21 02:46:53;;;;;;;3.15;2.95;;;18.50;38.20;;;;;;5038455;28;20554;-66
2022/04/21 02:49:20;;;;;;;3.30;3.10;;;18.40;38.10;;;;;;5056142;28;20222;-66
2022/04/21 02:51:47;;;;;;;3.05;2.85;;;18.40;38.20;;;;;;5038266;28;20206;-66
2022/04/21 02:59:44;;;;;;;3.30;3.10;;;18.40;38.30;;;;;;5055804;28;20279;-66
2022/04/21 03:02:12;;;;;;;3.08;2.88;;;18.40;38.30;;;;;;5055849;28;20226;-66
2022/04/21 03:04:39;;;;;;;2.90;2.70;;;18.40;38.30;;;;;;5055745;28;20261;-66
2022/04/21 03:07:07;;;;;;;3.20;2.95;;;18.40;38.20;;;;;;5037893;28;20559;-66
2022/04/21 03:09:34;;;;;;;3.30;3.10;;;18.30;38.10;;;;;;5037880;28;20207;-66
2022/04/21 03:12:02;;;;;;;3.00;2.80;;;18.30;38.30;;;;;;5037926;28;20802;-66
2022/04/21 03:14:29;;;;;;;3.33;3.03;;;18.30;38.30;;;;;;5037639;28;20310;-66
2022/04/21 03:16:56;;;;;;;3.30;3.00;;;18.30;38.30;;;;;;5037708;28;20195;-66
2022/04/21 03:19:25;;;;;;;3.08;2.78;;;18.30;38.30;;;;;;5054661;28;20192;-66
2022/04/21 03:24:37;;;;;;;3.42;3.13;;;18.30;38.40;;;;;;5037848;28;20692;-66
2022/04/21 03:27:04;;;;;;;3.70;3.40;;;18.30;38.40;;;;;;5056109;28;20579;-66
2022/04/21 03:29:32;;;;;;;3.25;3.05;;;18.30;38.30;;;;;;5037873;28;20195;-66
2022/04/21 03:31:59;;;;;;;3.13;2.92;;;18.30;38.40;;;;;;5038086;28;20196;-66
2022/04/21 03:34:27;;;;;;;3.22;3.00;;;18.30;38.50;;;;;;5037271;28;20282;-66
2022/04/21 03:36:55;;;;;;;3.15;2.95;;;18.30;38.30;;;;;;5037451;28;20199;-66
2022/04/21 03:39:23;;;;;;;3.53;3.22;;;18.30;38.40;;;;;;5037517;28;20226;-65
2022/04/21 03:41:53;;;;;;;3.65;3.35;;;18.30;38.40;;;;;;5055104;28;20209;-66
2022/04/21 03:44:20;;;;;;;2.83;2.63;;;18.30;38.30;;;;;;5037143;28;20247;-66
2022/04/21 03:46:48;;;;;;;3.33;3.03;;;18.30;38.40;;;;;;5055004;28;20278;-66
2022/04/21 03:49:15;;;;;;;3.35;3.15;;;18.30;38.40;;;;;;5037077;28;20199;-66
2022/04/21 03:51:43;;;;;;;3.35;3.10;;;18.30;38.50;;;;;;5037085;28;20203;-65
2022/04/21 03:54:11;;;;;;;3.22;2.92;;;18.30;39.00;;;;;;5054792;28;20213;-67
2022/04/21 03:56:38;;;;;;;3.10;2.90;;;18.30;38.50;;;;;;5037008;28;20305;-67
2022/04/21 03:59:05;;;;;;;3.63;2.95;;;18.30;38.40;;;;;;5054710;28;20696;-66
2022/04/21 04:01:31;;;;;;;3.67;3.00;;;18.30;38.40;;;;;;5036940;28;20229;-67
2022/04/21 04:03:58;;;;;;;3.22;2.90;;;18.30;38.30;;;;;;5054777;28;20211;-67
2022/04/21 04:11:55;;;;;;;3.60;3.30;;;18.30;38.30;;;;;;5036785;28;20286;-66
2022/04/21 04:14:22;;;;;;;3.53;3.17;;;18.30;38.30;;;;;;5036571;28;20585;-66
2022/04/21 04:16:49;;;;;;;3.60;3.40;;;18.30;38.30;;;;;;5036707;28;20599;-66
2022/04/21 04:19:16;;;;;;;3.20;2.85;;;18.30;38.40;;;;;;5036899;28;20203;-66
2022/04/21 04:21:43;;;;;;;3.60;3.30;;;18.30;38.30;;;;;;5054848;28;20190;-66
2022/04/21 04:24:12;;;;;;;3.67;3.40;;;18.30;38.30;;;;;;5036419;28;20262;-66
2022/04/21 04:26:39;;;;;;;3.42;3.22;;;18.30;38.30;;;;;;5054255;28;20557;-66
2022/04/21 04:29:05;;;;;;;3.47;3.10;;;18.30;38.30;;;;;;5036318;28;20201;-67
2022/04/21 04:31:33;;;;;;;4.32;3.42;;;18.40;38.30;;;;;;5036534;28;20286;-66
2022/04/21 04:34:00;;;;;;;4.47;3.80;;;18.40;38.40;;;;;;5036011;28;20219;-67
2022/04/21 04:36:28;;;;;;;4.80;4.03;;;18.40;38.30;;;;;;5036231;28;20199;-66
2022/04/21 04:38:55;;;;;;;4.03;3.58;;;18.40;38.10;;;;;;5036143;28;20235;-66
2022/04/21 04:44:08;;;;;;;3.60;3.30;;;18.50;38.30;;;;;;5054075;28;20211;-66
2022/04/21 04:46:37;;;;;;;3.90;3.60;;;18.50;38.10;;;;;;5036154;28;20199;-66
2022/04/21 04:49:05;;;;;;;3.78;3.42;;;18.50;38.10;;;;;;5053863;28;20293;-66
2022/04/21 04:51:33;;;;;;;3.55;3.30;;;18.60;38.00;;;;;;5036229;28;20249;-66
2022/04/21 04:54:00;;;;;;;3.72;3.42;;;18.60;38.20;;;;;;5036634;28;20218;-67
2022/04/21 04:56:28;;;;;;;4.00;3.70;;;18.60;38.60;;;;;;5036217;28;20321;-66
2022/04/21 04:58:55;;;;;;;3.90;3.63;;;18.60;37.90;;;;;;5053751;28;20571;-67
2022/04/21 05:01:27;;;;;;;3.25;2.95;;;18.60;37.90;;;;;;5035751;28;20207;-66
2022/04/21 05:04:00;;;;;;;3.80;3.50;;;18.70;38.10;;;;;;5053901;28;20571;-66
2022/04/21 05:06:27;;;;;;;4.10;3.80;;;18.70;38.00;;;;;;5036022;28;20195;-66
2022/04/21 05:08:56;;;;;;;6.55;3.60;;;18.70;37.70;;;;;;5036432;28;20625;-66
2022/04/21 05:11:23;;;;;;;4.05;3.70;;;18.70;37.50;;;;;;5035875;28;20222;-66
2022/04/21 05:13:52;;;;;;;4.20;3.80;;;18.80;37.40;;;;;;5054233;28;20207;-67
2022/04/21 05:16:19;;;;;;;4.10;3.80;;;18.90;37.70;;;;;;5035480;28;20215;-67
2022/04/21 05:18:47;;;;;;;4.15;3.75;;;18.90;37.60;;;;;;5035592;28;20260;-67
2022/04/21 05:21:14;;;;;;;3.58;3.28;;;19.00;38.00;;;;;;5035588;28;20687;-67
2022/04/21 05:23:42;;;;;;;4.00;3.60;;;19.00;37.80;;;;;;5035683;28;20219;-68
2022/04/21 05:26:09;;;;;;;3.80;3.50;;;19.10;38.10;;;;;;5035559;28;20563;-67
2022/04/21 05:28:37;;;;;;;4.78;3.83;;;19.10;38.20;;;;;;5036131;28;20579;-67
2022/04/21 05:31:05;;;;;;;3.97;3.67;;;19.20;38.30;;;;;;5053283;28;20245;-67
2022/04/21 05:33:35;;;;;;;4.07;3.67;;;19.40;38.10;;;;;;5035207;28;20219;-67
2022/04/21 05:36:03;;;;;;;4.80;3.65;;;19.40;37.70;;;;;;5035440;28;20600;-67
2022/04/21 05:38:31;;;;;;;3.78;3.47;;;19.50;38.90;;;;;;5035375;28;20199;-67
2022/04/21 05:40:59;;;;;;;3.85;3.55;;;19.60;38.50;;;;;;5034781;28;20218;-67
2022/04/21 05:43:30;;;;;;;3.92;3.60;;;19.70;38.20;;;;;;5035153;28;20642;-66
2022/04/21 05:45:58;;;;;;;5.10;3.63;;;19.90;38.00;;;;;;5035131;28;20290;-68
2022/04/21 05:48:26;;;;;;;3.67;3.38;;;20.00;37.60;;;;;;5035057;28;20191;-67
2022/04/21 05:50:54;;;;;;;4.00;3.70;;;20.20;37.40;;;;;;5035185;28;20195;-68
2022/04/21 05:53:22;;;;;;;4.00;3.60;;;20.40;38.10;;;;;;5053066;28;20211;-68
2022/04/21 05:55:50;;;;;;;3.97;3.65;;;20.50;37.50;;;;;;5053128;28;20203;-69
2022/04/21 05:58:18;;;;;;;3.80;3.50;;;20.70;37.10;;;;;;5035475;28;20287;-68
2022/04/21 06:00:45;;;;;;;4.10;3.70;;;20.90;36.70;;;;;;5035581;28;20227;-68
2022/04/21 06:03:13;;;;;;;3.95;3.65;;;21.10;36.30;;;;;;5053153;28;20266;-68
2022/04/21 06:05:41;;;;;;;4.35;4.05;;;21.20;35.80;;;;;;5052920;28;20190;-68
2022/04/21 06:08:08;;;;;;;4.32;4.03;;;21.40;35.60;;;;;;5140567;22;20292;-71
2022/04/21 06:10:35;;;;;;;4.82;4.13;;;21.50;35.30;;;;;;5012453;28;20201;-71
2022/04/21 06:13:02;;;;;;;4.00;3.70;;;21.60;35.00;;;;;;5013595;28;20192;-72
2022/04/21 06:15:31;;;;;;;4.18;3.80;;;21.70;34.80;;;;;;5028745;28;20208;-72
2022/04/21 06:17:59;;;;;;;4.38;4.07;;;21.90;34.70;;;;;;5013534;28;20292;-72
2022/04/21 06:20:26;;;;;;;5.32;4.82;;;22.00;34.50;;;;;;5013347;28;20189;-72
2022/04/21 06:22:55;;;;;;;4.75;4.35;;;22.10;34.90;;;;;;5011995;28;20197;-72
2022/04/21 06:25:22;;;;;;;5.43;4.72;;;22.30;34.10;;;;;;5013852;28;20280;-72
2022/04/21 06:27:49;;;;;;;5.00;4.50;;;22.40;33.90;;;;;;5055142;22;20243;-71
2022/04/21 06:30:17;;;;;;;4.70;4.30;;;22.50;33.70;;;;;;5033276;28;20192;-71
2022/04/21 06:32:44;;;;;;;5.00;4.57;;;22.60;33.60;;;;;;5016493;28;20255;-71
2022/04/21 06:35:12;;;;;;;7.43;4.90;;;22.70;33.40;;;;;;5034092;28;20212;-70
2022/04/21 06:37:39;;;;;;;6.13;4.80;;;22.80;33.30;;;;;;5033607;28;20212;-71
2022/04/21 06:40:08;;;;;;;5.25;4.85;;;22.90;33.10;;;;;;5033324;28;20663;-71
2022/04/21 06:42:36;;;;;;;5.70;5.07;;;23.00;32.90;;;;;;5015722;28;20196;-71
2022/04/21 06:48:04;;;;;;;5.22;4.55;;;23.20;32.60;;;;;;5015790;28;20223;-71
2022/04/21 06:50:32;;;;;;;5.70;5.20;;;23.30;32.40;;;;;;5015915;28;20184;-71
2022/04/21 06:52:59;;;;;;;4.40;4.00;;;23.40;32.20;;;;;;5015854;28;20307;-71
2022/04/21 06:55:28;;;;;;;4.80;4.40;;;23.50;32.00;;;;;;5018909;28;20227;-71
2022/04/21 06:57:55;;;;;;;5.13;4.72;;;23.60;31.80;;;;;;5018838;28;20590;-71
2022/04/21 07:00:23;;;;;;;5.30;4.80;;;23.60;32.20;;;;;;5035525;28;20608;-71
2022/04/21 07:02:52;;;;;;;3.50;3.30;;;23.70;31.50;;;;;;5036771;28;20295;-71
2022/04/21 07:05:19;;;;;;;4.15;3.85;;;23.80;31.40;;;;;;5036508;28;20661;-71
2022/04/21 07:07:47;;;;;;;3.60;3.30;;;23.90;31.30;;;;;;5035250;28;20283;-71
2022/04/21 07:10:14;;;;;;;3.67;3.38;;;24.00;31.20;;;;;;5036972;28;20192;-71
2022/04/21 07:12:42;;;;;;;3.15;2.95;;;24.10;31.00;;;;;;5019636;28;20204;-72
2022/04/21 07:15:10;;;;;;;3.50;3.20;;;24.20;30.90;;;;;;5035974;28;20224;-71
2022/04/21 07:17:38;;;;;;;3.45;3.10;;;24.20;30.60;;;;;;5019936;28;20224;-71
2022/04/21 07:20:06;;;;;;;3.38;3.10;;;24.30;30.70;;;;;;5036024;28;20283;-72
2022/04/21 07:22:33;;;;;;;2.97;2.60;;;24.40;30.60;;;;;;5020254;28;20200;-72
2022/04/21 07:25:02;;;;;;;3.40;3.10;;;24.50;30.40;;;;;;5035817;28;20227;-71
2022/04/21 07:27:29;;;;;;;3.05;2.83;;;24.60;30.90;;;;;;5018726;28;20585;-71
2022/04/21 07:29:57;;;;;;;2.75;2.55;;;24.60;30.10;;;;;;5037099;28;20290;-72
2022/04/21 07:32:24;;;;;;;2.85;2.65;;;24.70;30.00;;;;;;5035588;28;20228;-72
2022/04/21 07:34:51;;;;;;;2.97;2.50;;;24.70;30.00;;;;;;5018469;28;20208;-72
2022/04/21 07:37:19;;;;;;;2.70;2.50;;;24.80;29.90;;;;;;5018271;28;20270;-72
2022/04/21 07:39:46;;;;;;;2.75;2.55;;;24.90;29.80;;;;;;5018062;28;20254;-72
2022/04/21 07:42:13;;;;;;;3.17;2.85;;;25.00;29.80;;;;;;5017863;28;20195;-72
2022/04/21 07:44:40;;;;;;;2.80;2.60;;;25.00;29.70;;;;;;5017932;28;20620;-72
2022/04/21 07:47:09;;;;;;;2.75;2.47;;;25.10;29.60;;;;;;5035730;28;20215;-72
2022/04/21 07:49:45;;;;;;;2.97;2.72;;;25.10;29.50;;;;;;5034498;28;20208;-72
2022/04/21 07:54:58;;;;;;;2.97;2.70;;;25.20;29.40;;;;;;5018141;28;20188;-72
2022/04/21 07:57:25;;;;;;;2.30;2.10;;;25.30;29.30;;;;;;5034444;28;20223;-72
2022/04/21 07:59:52;;;;;;;2.70;2.50;;;25.40;29.30;;;;;;5018791;28;20211;-72
2022/04/21 08:02:20;;;;;;;2.65;2.45;;;25.40;29.20;;;;;;5018257;28;20199;-72
2022/04/21 08:04:49;;;;;;;2.72;2.53;;;25.50;29.20;;;;;;5034823;28;20232;-71
2022/04/21 08:07:16;;;;;;;2.60;2.40;;;25.50;29.10;;;;;;5035860;28;20267;-71
2022/04/21 08:09:43;;;;;;;2.75;2.55;;;25.50;28.90;;;;;;5036026;28;20276;-71
2022/04/21 08:12:10;;;;;;;2.78;2.53;;;25.60;28.90;;;;;;5018539;28;20204;-73
2022/04/21 08:14:38;;;;;;;2.30;2.10;;;25.60;28.80;;;;;;5035847;28;20188;-72
2022/04/21 08:17:05;;;;;;;2.72;2.53;;;25.70;28.80;;;;;;5017187;28;20669;-71
2022/04/21 08:19:34;;;;;;;2.83;2.40;;;25.70;28.80;;;;;;5035212;28;20191;-71
2022/04/21 08:22:01;;;;;;;3.95;2.70;;;25.70;28.60;;;;;;5033668;28;20196;-72
2022/04/21 08:32:43;;;;;;;2.50;2.30;;;25.90;28.60;;;;;;5034486;28;20536;-73
2022/04/21 08:35:13;;;;;;;2.58;2.38;;;25.90;28.60;;;;;;5033160;28;20276;-73
2022/04/21 08:37:41;;;;;;;3.15;2.40;;;25.90;29.00;;;;;;5033117;28;20262;-73
2022/04/21 08:40:10;;;;;;;2.80;2.60;;;25.90;28.50;;;;;;5016776;28;20269;-72
2022/04/21 08:42:39;;;;;;;2.40;2.20;;;26.00;28.50;;;;;;5032975;28;20611;-72
2022/04/21 08:45:07;;;;;;;2.50;2.30;;;26.00;28.40;;;;;;5032929;28;20228;-73
2022/04/21 08:47:34;;;;;;;2.90;2.60;;;26.00;28.40;;;;;;5016521;28;20216;-72
2022/04/21 08:50:04;;;;;;;2.83;2.60;;;26.00;28.40;;;;;;5016570;28;20234;-72
2022/04/21 08:52:33;;;;;;;2.80;2.47;;;26.10;28.40;;;;;;5032903;28;20196;-72
2022/04/21 08:55:00;;;;;;;2.60;2.40;;;26.10;28.40;;;;;;5016363;28;20692;-72
2022/04/21 08:57:27;;;;;;;2.50;2.30;;;26.10;28.30;;;;;;5033797;28;20299;-72
2022/04/21 08:59:54;;;;;;;2.40;2.20;;;26.10;28.30;;;;;;5034106;28;20194;-72
2022/04/21 09:02:21;;;;;;;2.55;2.35;;;26.10;28.30;;;;;;5016369;28;20203;-73
2022/04/21 09:04:49;;;;;;;2.50;2.30;;;26.10;28.20;;;;;;5033987;28;20283;-72
2022/04/21 09:07:17;;;;;;;2.72;2.53;;;26.10;28.20;;;;;;5034216;28;20210;-73
2022/04/21 09:10:06;;;;;;;2.20;2.10;;;26.20;28.30;;;;;;5016545;28;20211;-73
2022/04/21 09:12:34;;;;;;;2.50;2.30;;;26.20;28.30;;;;;;5034504;28;20191;-72
2022/04/21 09:15:09;;;;;;;2.42;2.22;;;26.20;28.70;;;;;;5016124;28;20215;-72
2022/04/21 09:17:40;;;;;;;2.25;2.05;;;26.20;28.20;;;;;;5032160;28;20247;-73
2022/04/21 09:20:08;;;;;;;2.40;2.20;;;26.20;28.20;;;;;;5033626;28;20203;-70
2022/04/21 09:22:36;;;;;;;2.50;2.35;;;26.20;28.70;;;;;;5032465;28;20270;-70
2022/04/21 09:25:05;;;;;;;2.63;2.42;;;26.20;28.30;;;;;;5015986;28;20196;-70
2022/04/21 09:27:40;;;;;;;2.45;2.25;;;26.20;28.30;;;;;;5032397;28;20322;-73
2022/04/21 09:30:10;;;;;;;2.38;2.17;;;26.10;28.40;;;;;;5015944;28;20196;-70
2022/04/21 09:32:38;;;;;;;2.22;2.10;;;26.00;28.40;;;;;;5034195;28;20599;-70
2022/04/21 09:35:06;;;;;;;3.05;2.20;;;25.90;28.60;;;;;;5017109;28;20207;-71
2022/04/21 09:37:34;;;;;;;2.40;2.20;;;25.80;28.70;;;;;;5034404;28;20212;-70
2022/04/21 09:40:04;;;;;;;2.30;2.20;;;25.70;29.20;;;;;;5016471;28;20200;-70
2022/04/21 09:42:32;;;;;;;2.60;2.40;;;25.60;28.90;;;;;;5015975;28;20646;-70
2022/04/21 09:47:48;;;;;;;2.28;2.13;;;25.50;29.00;;;;;;4984397;28;20212;-70
2022/04/21 09:50:16;;;;;;;2.10;1.90;;;25.50;29.00;;;;;;5015819;28;20199;-71
2022/04/21 09:52:50;;;;;;;2.25;2.15;;;25.60;29.00;;;;;;5032911;28;20192;-70
2022/04/21 09:55:23;;;;;;;2.28;2.13;;;25.60;28.90;;;;;;5015832;28;20232;-71
2022/04/21 09:58:03;;;;;;;2.20;2.10;;;25.70;28.90;;;;;;5015837;28;20220;-71
2022/04/21 10:00:30;;;;;;;2.63;2.42;;;25.70;28.80;;;;;;5015850;28;20231;-73
2022/04/21 10:02:58;;;;;;;2.22;2.13;;;25.80;28.80;;;;;;5015940;28;20207;-71
2022/04/21 10:05:25;;;;;;;2.17;2.08;;;25.80;28.70;;;;;;5032340;28;20196;-71
2022/04/21 10:07:52;;;;;;;2.47;2.28;;;25.80;28.70;;;;;;5016178;28;20231;-71
2022/04/21 10:10:19;;;;;;;2.20;2.00;;;25.80;28.70;;;;;;5015869;28;20200;-71
2022/04/21 10:12:47;;;;;;;2.33;2.13;;;25.80;28.80;;;;;;5032141;28;20688;-72
2022/04/21 10:15:15;;;;;;;2.25;2.15;;;25.80;28.80;;;;;;5016077;28;20219;-71
2022/04/21 10:17:42;;;;;;;2.40;2.20;;;25.70;28.80;;;;;;5015736;28;20592;-71
2022/04/21 10:20:10;;;;;;;2.40;2.20;;;25.70;28.80;;;;;;5033069;28;20196;-71
2022/04/21 10:22:37;;;;;;;2.45;2.25;;;25.70;28.90;;;;;;5033277;28;20192;-71
2022/04/21 10:25:05;;;;;;;2.40;2.20;;;25.70;28.90;;;;;;5015409;28;20211;-71
2022/04/21 10:27:42;;;;;;;2.05;1.95;;;25.60;28.90;;;;;;5032596;28;20247;-71
2022/04/21 10:30:15;;;;;;;2.35;2.17;;;25.70;29.00;;;;;;5019442;28;20192;-71
2022/04/21 10:32:49;;;;;;;2.25;2.05;;;25.60;29.00;;;;;;5019390;28;20682;-71
2022/04/21 10:35:49;;;;;;;2.28;2.13;;;25.60;29.00;;;;;;5019136;28;20224;-71
2022/04/21 10:38:26;;;;;;;2.10;2.00;;;25.60;29.10;;;;;;5019040;28;20224;-71
2022/04/21 10:40:58;;;;;;;2.38;2.17;;;25.60;29.10;;;;;;5019283;28;20199;-71
2022/04/21 10:43:25;;;;;;;2.30;2.10;;;25.50;29.10;;;;;;5037160;28;20192;-71
2022/04/21 10:46:07;;;;;;;2.13;2.03;;;25.50;29.20;;;;;;5035744;28;20298;-71
2022/04/21 10:48:43;;;;;;;2.17;1.92;;;25.50;29.30;;;;;;5035349;28;20226;-71
2022/04/21 10:51:10;;;;;;;2.13;2.03;;;25.40;29.40;;;;;;5018928;28;20294;-71
2022/04/21 10:59:24;;;;;;;2.05;1.88;;;25.30;29.40;;;;;;5010591;28;20196;-71
2022/04/21 11:01:54;;;;;;;2.28;2.10;;;25.30;29.50;;;;;;5036727;28;20190;-71
2022/04/21 11:04:24;;;;;;;2.42;2.22;;;25.30;29.60;;;;;;5018561;28;20196;-71
2022/04/21 11:06:52;;;;;;;1.92;1.83;;;25.20;29.60;;;;;;5036314;28;20185;-71
2022/04/21 11:09:39;;;;;;;2.40;2.20;;;25.20;29.70;;;;;;5035015;28;20246;-71
2022/04/21 11:12:07;;;;;;;2.17;2.08;;;25.20;29.70;;;;;;5018306;28;20200;-71
2022/04/21 11:14:36;;;;;;;2.00;1.90;;;25.20;29.70;;;;;;5036043;28;20184;-71
2022/04/21 11:17:05;;;;;;;2.30;2.20;;;25.20;29.70;;;;;;5018701;28;20235;-73
2022/04/21 11:19:45;;;;;;;2.22;2.03;;;25.20;29.70;;;;;;5019441;28;20270;-73
2022/04/21 11:22:14;;;;;;;1.90;1.80;;;25.20;29.70;;;;;;5035987;28;20204;-72
2022/04/21 11:25:04;;;;;;;2.30;2.10;;;25.20;29.70;;;;;;5035871;28;20188;-72
2022/04/21 11:27:34;;;;;;;2.00;1.90;;;25.20;29.70;;;;;;5035883;28;20590;-74
2022/04/21 11:30:08;;;;;;;1.80;1.70;;;25.20;29.80;;;;;;5018157;28;20306;-72
2022/04/21 11:32:37;;;;;;;2.05;1.95;;;25.10;29.90;;;;;;5034670;28;20284;-73
2022/04/21 11:35:06;;;;;;;1.90;1.80;;;25.10;29.90;;;;;;5017951;28;20196;-72
2022/04/21 11:37:53;;;;;;;2.22;2.00;;;25.10;29.90;;;;;;5018210;28;20234;-73
2022/04/21 11:40:42;;;;;;;1.92;1.83;;;25.10;30.00;;;;;;5035585;28;20211;-72
2022/04/21 11:43:15;;;;;;;2.17;1.98;;;25.00;30.00;;;;;;5012039;28;20681;-72
2022/04/21 11:45:44;;;;;;;2.20;2.10;;;25.00;30.00;;;;;;5018354;28;20196;-72
2022/04/21 11:48:13;;;;;;;2.20;2.10;;;25.00;30.00;;;;;;5018405;28;20219;-72
2022/04/21 11:50:43;;;;;;;1.80;1.70;;;25.00;30.00;;;;;;5036361;28;20566;-72
2022/04/21 11:53:14;;;;;;;1.90;1.80;;;25.00;30.10;;;;;;5036252;28;20279;-73
2022/04/21 11:55:42;;;;;;;1.95;1.85;;;25.00;30.10;;;;;;5018344;28;20188;-72
2022/04/21 11:58:09;;;;;;;1.80;1.70;;;25.00;30.10;;;;;;5018293;28;20228;-72
2022/04/21 12:08:51;;;;;;;1.90;1.80;;;24.90;30.30;;;;;;5017472;28;20707;-72
2022/04/21 12:11:21;;;;;;;1.80;1.70;;;24.90;30.30;;;;;;5034101;28;20200;-72
2022/04/21 12:13:48;;;;;;;1.70;1.60;;;24.80;30.30;;;;;;5017424;28;20736;-72
2022/04/21 12:16:38;;;;;;;1.80;1.70;;;24.80;30.40;;;;;;5033761;28;20207;-72
2022/04/21 12:19:18;;;;;;;1.90;1.80;;;24.80;30.50;;;;;;5033842;28;20549;-72
2022/04/21 12:21:45;;;;;;;1.95;1.85;;;24.80;30.50;;;;;;5017297;28;20188;-72
2022/04/21 12:24:14;;;;;;;1.90;1.80;;;24.70;30.50;;;;;;5016960;28;20231;-72
2022/04/21 12:26:48;;;;;;;1.75;1.65;;;24.70;30.60;;;;;;5033342;28;20713;-72
2022/04/21 12:29:15;;;;;;;1.85;1.75;;;24.70;30.70;;;;;;5034803;28;20664;-72
2022/04/21 12:31:43;;;;;;;1.80;1.70;;;24.70;30.70;;;;;;5034694;28;20196;-72
2022/04/21 12:34:11;;;;;;;1.92;1.80;;;24.70;30.80;;;;;;5016730;28;20619;-72
2022/04/21 12:36:49;;;;;;;1.90;1.80;;;24.60;30.90;;;;;;5033260;28;20195;-72
2022/04/21 12:39:16;;;;;;;1.80;1.70;;;24.60;30.90;;;;;;5033178;28;20669;-72
2022/04/21 12:41:44;;;;;;;1.90;1.80;;;24.60;30.90;;;;;;5033354;28;20210;-72
2022/04/21 12:44:12;;;;;;;1.80;1.70;;;24.60;30.90;;;;;;5017325;28;20196;-72
2022/04/21 12:46:40;;;;;;;1.77;1.67;;;24.60;30.90;;;;;;5016985;28;20203;-72
2022/04/21 12:49:08;;;;;;;1.88;1.77;;;24.60;30.90;;;;;;5016802;28;20236;-72
2022/04/21 12:51:35;;;;;;;1.80;1.70;;;24.50;30.90;;;;;;5016554;28;20268;-72
2022/04/21 12:54:03;;;;;;;1.90;1.80;;;24.50;30.80;;;;;;5033248;28;20250;-72
2022/04/21 12:56:34;;;;;;;1.75;1.65;;;24.50;30.90;;;;;;5016451;28;20222;-72
2022/04/21 12:59:02;;;;;;;1.80;1.70;;;24.50;30.80;;;;;;5033962;28;20568;-72
2022/04/21 13:01:29;;;;;;;1.65;1.55;;;24.50;30.90;;;;;;5016590;28;20230;-72
2022/04/21 13:03:58;;;;;;;1.63;1.52;;;24.50;30.90;;;;;;5016100;28;20212;-71
2022/04/21 13:06:28;;;;;;;1.70;1.60;;;24.50;30.90;;;;;;5016249;28;20211;-72
2022/04/21 13:08:56;;;;;;;1.90;1.80;;;24.50;31.50;;;;;;5033971;28;20224;-72
2022/04/21 13:11:24;;;;;;;1.70;1.60;;;24.50;31.00;;;;;;5034116;28;20203;-72
2022/04/21 13:13:53;;;;;;;2.08;1.95;;;24.50;31.10;;;;;;5033662;28;20191;-72
2022/04/21 13:16:20;;;;;;;1.75;1.65;;;24.50;31.20;;;;;;5033707;28;20188;-72
2022/04/21 13:18:47;;;;;;;1.73;1.63;;;24.50;30.90;;;;;;5015738;28;20251;-72
2022/04/21 13:23:58;;;;;;;1.88;1.77;;;24.50;30.90;;;;;;5016199;28;20192;-72
2022/04/21 13:26:29;;;;;;;1.92;1.83;;;24.50;30.90;;;;;;5015790;28;20208;-72
2022/04/21 13:28:57;;;;;;;1.73;1.63;;;24.50;30.90;;;;;;5032195;28;20211;-72
2022/04/21 13:34:10;;;;;;;1.40;1.40;;;24.40;30.80;;;;;;5016614;28;20263;-72
2022/04/21 13:36:38;;;;;;;1.65;1.55;;;24.40;30.80;;;;;;5018095;28;20200;-72
2022/04/21 13:39:05;;;;;;;1.60;1.50;;;24.40;31.10;;;;;;5017718;28;20724;-72
2022/04/21 13:41:33;;;;;;;1.60;1.50;;;24.40;31.10;;;;;;5032620;28;20678;-72
2022/04/21 13:44:00;;;;;;;2.00;1.90;;;24.40;31.10;;;;;;5032060;28;20200;-72
2022/04/21 13:46:28;;;;;;;1.70;1.60;;;24.40;31.00;;;;;;5015695;28;20208;-72
2022/04/21 13:48:57;;;;;;;1.70;1.60;;;24.40;31.10;;;;;;5015440;28;20716;-72
2022/04/21 13:51:24;;;;;;;1.83;1.73;;;24.40;31.00;;;;;;5033530;28;20188;-72
2022/04/21 13:53:52;;;;;;;1.80;1.70;;;24.40;30.90;;;;;;5015718;28;20633;-72